Time;durP1;ratioP1;P1;durP2;ratioP2;P2;SDS_P1;SDS_P2;PMS_P1;PMS_P2;Temp;Humidity;BMP_temperature;BMP_pressure;BME280_temperature;BME280_humidity;BME280_pressure;Samples;Min_cycle;Max_cycle;Signal;HPM_P1;HPM_P2
2023/06/12 00:00:56;;;;;;;;;;;;;;;25.63;nan;102133.00;4975841;28;20354;-79
2023/06/12 00:03:25;;;;;;;;;;;;;;;25.57;nan;102140.56;4987157;28;19932;-79
2023/06/12 00:05:51;;;;;;;;;;;;;;;25.50;nan;102138.28;4979879;28;19921;-79
2023/06/12 00:08:20;;;;;;;;;;;;;;;25.42;nan;102138.25;4983299;28;19917;-79
2023/06/12 00:10:47;;;;;;;;;;;;;;;25.33;nan;102140.94;4987089;28;19918;-79
2023/06/12 00:13:13;;;;;;;;;;;;;;;25.27;nan;102140.25;4981253;28;20548;-79
2023/06/12 00:15:38;;;;;;;;;;;;;;;25.22;nan;102136.84;4985620;28;19921;-79
2023/06/12 00:18:04;;;;;;;;;;;;;;;25.16;nan;102136.16;4985903;28;19928;-79
2023/06/12 00:20:30;;;;;;;;;;;;;;;25.10;nan;102133.84;4983984;28;20172;-79
2023/06/12 00:22:56;;;;;;;;;;;;;;;25.06;nan;102138.34;4980970;28;19953;-79
2023/06/12 00:25:21;;;;;;;;;;;;;;;24.99;nan;102133.28;4985194;28;19963;-79
2023/06/12 00:27:47;;;;;;;;;;;;;;;24.96;nan;102134.72;4985742;28;19917;-79
2023/06/12 00:30:12;;;;;;;;;;;;;;;24.93;nan;102129.84;4984795;28;19918;-79
2023/06/12 00:32:38;;;;;;;;;;;;;;;24.88;nan;102129.16;4982176;28;19928;-79
2023/06/12 00:35:03;;;;;;;;;;;;;;;24.82;nan;102133.97;4983570;28;19926;-78
2023/06/12 00:37:29;;;;;;;;;;;;;;;24.77;nan;102134.06;4985151;28;19976;-79
2023/06/12 00:39:54;;;;;;;;;;;;;;;24.70;nan;102130.94;4980949;28;20445;-79
2023/06/12 00:42:20;;;;;;;;;;;;;;;24.65;nan;102134.63;4983197;28;19921;-79
2023/06/12 00:44:45;;;;;;;;;;;;;;;24.60;nan;102128.47;4985139;28;19929;-79
2023/06/12 00:47:11;;;;;;;;;;;;;;;24.52;nan;102134.66;4983464;28;19918;-79
2023/06/12 00:49:37;;;;;;;;;;;;;;;24.45;nan;102128.81;4986076;28;19925;-79
2023/06/12 00:52:02;;;;;;;;;;;;;;;24.39;nan;102128.91;4982899;28;20378;-79
2023/06/12 00:54:28;;;;;;;;;;;;;;;24.33;nan;102137.56;4983148;28;19922;-79
2023/06/12 00:56:55;;;;;;;;;;;;;;;24.28;nan;102135.72;4981046;28;19925;-79
2023/06/12 00:59:20;;;;;;;;;;;;;;;24.23;nan;102130.31;4982696;28;19925;-79
2023/06/12 01:01:46;;;;;;;;;;;;;;;24.18;nan;102135.91;4985055;28;19917;-79
2023/06/12 01:04:11;;;;;;;;;;;;;;;24.11;nan;102135.53;4978187;28;19965;-79
2023/06/12 01:06:42;;;;;;;;;;;;;;;24.03;nan;102123.34;4980009;28;19917;-79
2023/06/12 01:09:27;;;;;;;;;;;;;;;23.95;nan;102132.28;4978619;28;19917;-79
2023/06/12 01:11:52;;;;;;;;;;;;;;;23.89;nan;102130.78;4948070;28;19925;-79
2023/06/12 01:14:18;;;;;;;;;;;;;;;23.86;nan;102134.09;4976479;28;19944;-79
2023/06/12 01:16:45;;;;;;;;;;;;;;;23.82;nan;102133.09;4976750;28;19965;-79
2023/06/12 01:19:11;;;;;;;;;;;;;;;23.80;nan;102135.31;4979838;28;19918;-79
2023/06/12 01:21:40;;;;;;;;;;;;;;;23.76;nan;102134.31;4982590;28;20424;-78
2023/06/12 01:24:11;;;;;;;;;;;;;;;23.71;nan;102131.69;4979354;28;19921;-79
2023/06/12 01:26:43;;;;;;;;;;;;;;;23.64;nan;102137.53;4980624;28;19922;-78
2023/06/12 01:29:31;;;;;;;;;;;;;;;23.61;nan;102137.34;4995979;28;19922;-78
2023/06/12 01:32:01;;;;;;;;;;;;;;;23.59;nan;102136.84;4979110;28;20352;-79
2023/06/12 01:34:29;;;;;;;;;;;;;;;23.56;nan;102135.50;4981464;28;19925;-79
2023/06/12 01:37:13;;;;;;;;;;;;;;;23.54;nan;102134.19;4981940;28;20009;-78
2023/06/12 01:39:40;;;;;;;;;;;;;;;23.52;nan;102134.47;4979471;28;19925;-79
2023/06/12 01:42:07;;;;;;;;;;;;;;;23.50;nan;102139.41;4979003;28;19936;-79
2023/06/12 01:44:32;;;;;;;;;;;;;;;23.48;nan;102136.97;4984476;28;20058;-79
2023/06/12 01:46:58;;;;;;;;;;;;;;;23.47;nan;102131.81;4976310;28;19929;-79
2023/06/12 01:49:23;;;;;;;;;;;;;;;23.44;nan;102135.97;4982245;28;20117;-79
2023/06/12 01:51:48;;;;;;;;;;;;;;;23.41;nan;102135.78;4976797;28;19921;-79
2023/06/12 01:54:13;;;;;;;;;;;;;;;23.36;nan;102135.88;4981374;28;19918;-79
2023/06/12 01:56:39;;;;;;;;;;;;;;;23.30;nan;102134.31;4983675;28;20398;-79
2023/06/12 01:59:04;;;;;;;;;;;;;;;23.26;nan;102128.63;4982098;28;20374;-78
2023/06/12 02:01:31;;;;;;;;;;;;;;;23.26;nan;102130.56;4979197;28;19919;-79
2023/06/12 02:03:56;;;;;;;;;;;;;;;23.21;nan;102132.28;4985282;28;19954;-79
2023/06/12 02:06:22;;;;;;;;;;;;;;;23.19;nan;102133.69;4983202;28;19957;-79
2023/06/12 02:08:47;;;;;;;;;;;;;;;23.12;nan;102125.06;4977353;28;20290;-79
2023/06/12 02:11:13;;;;;;;;;;;;;;;23.04;nan;102137.50;4981958;28;19953;-79
2023/06/12 02:13:38;;;;;;;;;;;;;;;22.95;nan;102131.06;4978292;28;19953;-79
2023/06/12 02:16:03;;;;;;;;;;;;;;;22.88;nan;102133.38;4980474;28;19918;-79
2023/06/12 02:18:30;;;;;;;;;;;;;;;22.83;nan;102128.00;4982628;28;19965;-79
2023/06/12 02:20:55;;;;;;;;;;;;;;;22.78;nan;102126.09;4980624;28;19922;-79
2023/06/12 02:23:21;;;;;;;;;;;;;;;22.73;nan;102126.19;4980900;28;19958;-79
2023/06/12 02:25:46;;;;;;;;;;;;;;;22.66;nan;102127.69;4979962;28;19973;-79
2023/06/12 02:28:11;;;;;;;;;;;;;;;22.56;nan;102126.72;4983268;28;19922;-79
2023/06/12 02:30:37;;;;;;;;;;;;;;;22.46;nan;102126.06;4980796;28;19925;-79
2023/06/12 02:33:02;;;;;;;;;;;;;;;22.37;nan;102125.91;4975740;28;19945;-79
2023/06/12 02:35:28;;;;;;;;;;;;;;;22.29;nan;102123.84;4981284;28;19921;-79
2023/06/12 02:37:53;;;;;;;;;;;;;;;22.21;nan;102138.94;4980267;28;20353;-79
2023/06/12 02:40:18;;;;;;;;;;;;;;;22.16;nan;102140.94;4979306;28;20393;-79
2023/06/12 02:42:44;;;;;;;;;;;;;;;22.12;nan;102132.53;4977086;28;19929;-79
2023/06/12 02:45:09;;;;;;;;;;;;;;;22.07;nan;102137.22;4982676;28;20386;-79
2023/06/12 02:47:35;;;;;;;;;;;;;;;21.99;nan;102144.91;4980999;28;20397;-79
2023/06/12 02:50:01;;;;;;;;;;;;;;;21.93;nan;102146.09;4982480;28;19925;-79
2023/06/12 02:52:26;;;;;;;;;;;;;;;21.85;nan;102152.16;4978158;28;19929;-79
2023/06/12 02:54:51;;;;;;;;;;;;;;;21.71;nan;102149.31;4983913;28;19926;-79
2023/06/12 02:57:17;;;;;;;;;;;;;;;21.60;nan;102147.00;4979865;28;20366;-79
2023/06/12 02:59:42;;;;;;;;;;;;;;;21.52;nan;102147.59;4978703;28;19924;-79
2023/06/12 03:02:07;;;;;;;;;;;;;;;21.45;nan;102152.59;4978061;28;20405;-78
2023/06/12 03:04:33;;;;;;;;;;;;;;;21.40;nan;102154.28;4979548;28;19926;-79
2023/06/12 03:06:58;;;;;;;;;;;;;;;21.42;nan;102151.25;4980402;28;20481;-78
2023/06/12 03:09:24;;;;;;;;;;;;;;;21.38;nan;102153.75;4978805;28;19933;-79
2023/06/12 03:11:51;;;;;;;;;;;;;;;21.38;nan;102153.75;4978009;28;19921;-79
2023/06/12 03:14:17;;;;;;;;;;;;;;;21.36;nan;102149.66;4980063;28;20189;-79
2023/06/12 03:16:42;;;;;;;;;;;;;;;21.37;nan;102163.03;4979164;28;19988;-79
2023/06/12 03:19:08;;;;;;;;;;;;;;;21.36;nan;102161.41;4974490;28;19918;-79
2023/06/12 03:21:33;;;;;;;;;;;;;;;21.31;nan;102153.25;4979726;28;19922;-79
2023/06/12 03:23:59;;;;;;;;;;;;;;;21.27;nan;102146.75;4981435;28;19925;-79
2023/06/12 03:26:24;;;;;;;;;;;;;;;21.27;nan;102146.75;4974459;28;19921;-78
2023/06/12 03:28:50;;;;;;;;;;;;;;;21.27;nan;102156.84;4975519;28;20326;-78
2023/06/12 03:31:16;;;;;;;;;;;;;;;21.23;nan;102151.13;4979703;28;19922;-78
2023/06/12 03:33:41;;;;;;;;;;;;;;;21.22;nan;102157.69;4981501;28;20349;-79
2023/06/12 03:36:07;;;;;;;;;;;;;;;21.24;nan;102151.94;4985571;28;19918;-79
2023/06/12 03:38:32;;;;;;;;;;;;;;;21.22;nan;102163.13;4977595;28;20005;-79
2023/06/12 03:40:58;;;;;;;;;;;;;;;21.21;nan;102168.88;4979724;28;20048;-79
2023/06/12 03:43:23;;;;;;;;;;;;;;;21.21;nan;102164.22;4980028;28;19925;-79
2023/06/12 03:45:48;;;;;;;;;;;;;;;21.20;nan;102161.78;4979612;28;20040;-79
2023/06/12 03:48:14;;;;;;;;;;;;;;;21.19;nan;102160.97;4981747;28;19964;-79
2023/06/12 03:50:39;;;;;;;;;;;;;;;21.24;nan;102168.28;4979255;28;19965;-79
2023/06/12 03:53:04;;;;;;;;;;;;;;;21.27;nan;102165.84;4980279;28;19996;-80
2023/06/12 03:55:29;;;;;;;;;;;;;;;21.31;nan;102164.16;4982293;28;19918;-79
2023/06/12 03:57:56;;;;;;;;;;;;;;;21.34;nan;102174.47;4984985;28;20012;-79
2023/06/12 04:00:22;;;;;;;;;;;;;;;21.34;nan;102169.03;4983324;28;19925;-79
2023/06/12 04:02:47;;;;;;;;;;;;;;;21.37;nan;102168.47;4981660;28;20036;-79
2023/06/12 04:05:12;;;;;;;;;;;;;;;21.42;nan;102165.69;4984470;28;20032;-79
2023/06/12 04:07:38;;;;;;;;;;;;;;;21.47;nan;102167.56;4979504;28;19925;-79
2023/06/12 04:10:04;;;;;;;;;;;;;;;21.53;nan;102168.31;4985914;28;20417;-79
2023/06/12 04:12:30;;;;;;;;;;;;;;;21.64;nan;102178.03;4982838;28;20012;-79
2023/06/12 04:14:55;;;;;;;;;;;;;;;21.74;nan;102188.88;4982370;28;19957;-79
2023/06/12 04:17:21;;;;;;;;;;;;;;;21.83;nan;102165.28;4984762;28;19926;-79
2023/06/12 04:19:48;;;;;;;;;;;;;;;21.93;nan;102178.84;4983634;28;20019;-78
2023/06/12 04:22:15;;;;;;;;;;;;;;;22.00;nan;102182.03;4984200;28;19921;-79
2023/06/12 04:24:42;;;;;;;;;;;;;;;22.08;nan;102186.03;4982532;28;20012;-79
2023/06/12 04:27:09;;;;;;;;;;;;;;;22.08;nan;102182.50;4982111;28;19917;-79
2023/06/12 04:29:37;;;;;;;;;;;;;;;22.14;nan;102173.97;4976961;28;19964;-79
2023/06/12 04:32:05;;;;;;;;;;;;;;;22.23;nan;102182.31;4979234;28;20440;-79
2023/06/12 04:34:30;;;;;;;;;;;;;;;22.37;nan;102183.25;4981979;28;20005;-79
2023/06/12 04:40:06;;;;;;;;;;;;;;;22.59;nan;102191.69;4979669;28;19936;-79
2023/06/12 04:42:31;;;;;;;;;;;;;;;22.73;nan;102188.22;4979219;28;20020;-79
2023/06/12 04:44:58;;;;;;;;;;;;;;;22.86;nan;102180.13;4969771;28;20425;-79
2023/06/12 04:47:24;;;;;;;;;;;;;;;22.97;nan;102178.03;4970954;28;20009;-79
2023/06/12 04:49:52;;;;;;;;;;;;;;;23.04;nan;102183.16;4965290;28;20009;-79
2023/06/12 04:52:19;;;;;;;;;;;;;;;23.14;nan;102183.78;4962894;28;19933;-79
2023/06/12 04:54:45;;;;;;;;;;;;;;;23.27;nan;102181.41;4963938;28;19918;-79
2023/06/12 04:57:12;;;;;;;;;;;;;;;23.39;nan;102179.03;4962673;28;20009;-79
2023/06/12 04:59:42;;;;;;;;;;;;;;;23.51;nan;102182.06;4966157;28;20436;-79
2023/06/12 05:02:08;;;;;;;;;;;;;;;23.62;nan;102177.28;4960949;28;19918;-79
2023/06/12 05:04:35;;;;;;;;;;;;;;;23.70;nan;102177.41;4959597;28;20185;-79
2023/06/12 05:07:03;;;;;;;;;;;;;;;23.79;nan;102178.31;4962246;28;20426;-79
2023/06/12 05:09:28;;;;;;;;;;;;;;;23.91;nan;102175.09;4963298;28;19945;-79
2023/06/12 05:11:54;;;;;;;;;;;;;;;24.03;nan;102178.09;4962191;28;20576;-79
2023/06/12 05:14:19;;;;;;;;;;;;;;;24.17;nan;102180.84;4963407;28;19988;-79
2023/06/12 05:16:47;;;;;;;;;;;;;;;24.31;nan;102173.47;4964739;28;19918;-79
2023/06/12 05:19:12;;;;;;;;;;;;;;;24.47;nan;102173.94;4963292;28;19922;-79
2023/06/12 05:21:39;;;;;;;;;;;;;;;24.59;nan;102173.41;4959735;28;20480;-79
2023/06/12 05:24:04;;;;;;;;;;;;;;;24.73;nan;102171.44;4962726;28;19922;-79
2023/06/12 05:26:30;;;;;;;;;;;;;;;24.88;nan;102176.56;4961358;28;19926;-79
2023/06/12 05:28:55;;;;;;;;;;;;;;;25.04;nan;102174.31;4963156;28;20434;-79
2023/06/12 05:31:21;;;;;;;;;;;;;;;25.20;nan;102178.28;4963729;28;19918;-79
2023/06/12 05:33:46;;;;;;;;;;;;;;;25.37;nan;102177.59;4963682;28;20433;-79
2023/06/12 05:36:11;;;;;;;;;;;;;;;25.52;nan;102177.19;4960931;28;19929;-79
2023/06/12 05:38:38;;;;;;;;;;;;;;;25.67;nan;102175.16;4961215;28;19921;-79
2023/06/12 05:41:04;;;;;;;;;;;;;;;25.81;nan;102181.38;4962820;28;20020;-79
2023/06/12 05:43:29;;;;;;;;;;;;;;;26.00;nan;102178.41;4960638;28;20504;-79
2023/06/12 05:45:54;;;;;;;;;;;;;;;26.17;nan;102184.75;4963613;28;20017;-79
2023/06/12 05:48:22;;;;;;;;;;;;;;;26.32;nan;102183.50;4959137;28;20221;-79
2023/06/12 05:50:47;;;;;;;;;;;;;;;26.51;nan;102175.00;4961684;28;19921;-79
2023/06/12 05:53:12;;;;;;;;;;;;;;;26.65;nan;102172.91;4961461;28;19992;-79
2023/06/12 05:55:37;;;;;;;;;;;;;;;26.82;nan;102174.84;4962729;28;19918;-79
2023/06/12 05:58:03;;;;;;;;;;;;;;;26.96;nan;102172.75;4964914;28;19929;-79
2023/06/12 06:00:28;;;;;;;;;;;;;;;27.07;nan;102171.28;4962505;28;20472;-79
2023/06/12 06:02:54;;;;;;;;;;;;;;;27.17;nan;102177.59;4961141;28;19965;-79
2023/06/12 06:05:19;;;;;;;;;;;;;;;27.31;nan;102179.03;4964789;28;19922;-80
2023/06/12 06:07:45;;;;;;;;;;;;;;;27.45;nan;102178.81;4960265;28;19925;-79
2023/06/12 06:10:11;;;;;;;;;;;;;;;27.59;nan;102178.63;4962382;28;20495;-80
2023/06/12 06:12:37;;;;;;;;;;;;;;;27.72;nan;102171.34;4964414;28;19955;-80
2023/06/12 06:15:02;;;;;;;;;;;;;;;27.87;nan;102174.34;4963722;28;19922;-79
2023/06/12 06:17:27;;;;;;;;;;;;;;;28.02;nan;102172.16;4962491;28;20009;-79
2023/06/12 06:19:53;;;;;;;;;;;;;;;28.16;nan;102187.31;4961717;28;20213;-79
2023/06/12 06:22:18;;;;;;;;;;;;;;;28.31;nan;102183.19;4962008;28;19925;-79
2023/06/12 06:24:44;;;;;;;;;;;;;;;28.42;nan;102181.69;4962301;28;19932;-79
2023/06/12 06:27:09;;;;;;;;;;;;;;;28.58;nan;102184.66;4965595;28;19926;-79
2023/06/12 06:29:35;;;;;;;;;;;;;;;28.69;nan;102188.59;4962986;28;20009;-80
2023/06/12 06:32:00;;;;;;;;;;;;;;;28.82;nan;102184.75;4960759;28;20307;-80
2023/06/12 06:34:26;;;;;;;;;;;;;;;28.95;nan;102188.44;4965387;28;19918;-80
2023/06/12 06:36:51;;;;;;;;;;;;;;;29.08;nan;102192.81;4962793;28;20138;-80
2023/06/12 06:39:17;;;;;;;;;;;;;;;29.21;nan;102190.94;4964172;28;20314;-80
2023/06/12 06:41:42;;;;;;;;;;;;;;;29.35;nan;102187.88;4964779;28;19922;-80
2023/06/12 06:44:07;;;;;;;;;;;;;;;29.48;nan;102197.81;4964562;28;19938;-80
2023/06/12 06:46:33;;;;;;;;;;;;;;;29.62;nan;102201.06;4962698;28;19922;-80
2023/06/12 06:48:58;;;;;;;;;;;;;;;29.74;nan;102197.50;4962437;28;19937;-80
2023/06/12 06:51:23;;;;;;;;;;;;;;;29.87;nan;102198.34;4957526;28;20053;-80
2023/06/12 06:53:48;;;;;;;;;;;;;;;30.02;nan;102200.41;4963519;28;19918;-80
2023/06/12 06:56:14;;;;;;;;;;;;;;;30.18;nan;102200.56;4958837;28;19918;-80
2023/06/12 06:58:39;;;;;;;;;;;;;;;30.31;nan;102202.13;4962012;28;19922;-80
2023/06/12 07:01:05;;;;;;;;;;;;;;;30.47;nan;102205.00;4962263;28;19919;-79
2023/06/12 07:03:31;;;;;;;;;;;;;;;30.59;nan;102207.75;4964433;28;20090;-80
2023/06/12 07:05:56;;;;;;;;;;;;;;;30.70;nan;102208.88;4965483;28;20259;-80
2023/06/12 07:08:21;;;;;;;;;;;;;;;30.80;nan;102210.38;4963954;28;20004;-80
2023/06/12 07:10:47;;;;;;;;;;;;;;;30.89;nan;102197.19;4960725;28;20317;-80
2023/06/12 07:13:12;;;;;;;;;;;;;;;31.00;nan;102203.03;4964387;28;19922;-80
2023/06/12 07:15:37;;;;;;;;;;;;;;;31.14;nan;102208.97;4963280;28;19969;-79
2023/06/12 07:18:03;;;;;;;;;;;;;;;31.24;nan;102208.50;4959209;28;20137;-79
2023/06/12 07:20:28;;;;;;;;;;;;;;;31.34;nan;102209.94;4958054;28;19981;-78
2023/06/12 07:22:53;;;;;;;;;;;;;;;31.40;nan;102214.84;4962341;28;20540;-78
2023/06/12 07:25:19;;;;;;;;;;;;;;;31.50;nan;102219.06;4961614;28;19923;-78
2023/06/12 07:27:44;;;;;;;;;;;;;;;31.67;nan;102206.84;4960870;28;19925;-78
2023/06/12 07:30:10;;;;;;;;;;;;;;;31.75;nan;102208.66;4967889;28;19924;-78
2023/06/12 07:32:35;;;;;;;;;;;;;;;31.81;nan;102199.72;4964203;28;19929;-79
2023/06/12 07:35:01;;;;;;;;;;;;;;;31.89;nan;102202.66;4969523;28;19980;-78
2023/06/12 07:37:29;;;;;;;;;;;;;;;31.98;nan;102206.88;4961576;28;19922;-80
2023/06/12 07:39:54;;;;;;;;;;;;;;;32.08;nan;102202.72;4967729;28;20477;-79
2023/06/12 07:42:20;;;;;;;;;;;;;;;32.09;nan;102199.59;4964643;28;19945;-78
2023/06/12 07:44:45;;;;;;;;;;;;;;;32.23;nan;102204.66;4966164;28;20024;-79
2023/06/12 07:47:10;;;;;;;;;;;;;;;32.33;nan;102206.94;4963668;28;20065;-78
2023/06/12 07:49:36;;;;;;;;;;;;;;;32.47;nan;102206.41;4964960;28;19968;-78
2023/06/12 07:52:01;;;;;;;;;;;;;;;32.58;nan;102204.69;4968711;28;20349;-79
2023/06/12 07:54:26;;;;;;;;;;;;;;;32.70;nan;102209.31;4965389;28;19918;-79
2023/06/12 07:56:52;;;;;;;;;;;;;;;32.80;nan;102202.34;4967655;28;19973;-79
2023/06/12 07:59:17;;;;;;;;;;;;;;;32.91;nan;102203.41;4960689;28;20404;-79
2023/06/12 08:01:42;;;;;;;;;;;;;;;33.00;nan;102201.19;4965765;28;19918;-79
2023/06/12 08:04:11;;;;;;;;;;;;;;;33.05;nan;102185.06;4966038;28;19922;-79
2023/06/12 08:06:40;;;;;;;;;;;;;;;33.14;nan;102204.25;4967028;28;19918;-79
2023/06/12 08:09:06;;;;;;;;;;;;;;;33.22;nan;102197.69;4965163;28;19941;-79
2023/06/12 08:11:31;;;;;;;;;;;;;;;33.29;nan;102197.00;4966642;28;20375;-79
2023/06/12 08:13:56;;;;;;;;;;;;;;;33.39;nan;102196.41;4963508;28;19918;-79
2023/06/12 08:16:23;;;;;;;;;;;;;;;33.49;nan;102189.44;4965184;28;19933;-79
2023/06/12 08:18:48;;;;;;;;;;;;;;;33.62;nan;102193.66;4963808;28;19922;-80
2023/06/12 08:21:13;;;;;;;;;;;;;;;33.68;nan;102185.81;4963014;28;19929;-79
2023/06/12 08:23:39;;;;;;;;;;;;;;;33.82;nan;102188.81;4965616;28;19918;-80
2023/06/12 08:26:04;;;;;;;;;;;;;;;33.91;nan;102190.19;4964245;28;19925;-79
2023/06/12 08:28:30;;;;;;;;;;;;;;;34.03;nan;102191.97;4963700;28;19948;-80
2023/06/12 08:30:57;;;;;;;;;;;;;;;34.18;nan;102187.41;4962132;28;19922;-80
2023/06/12 08:33:23;;;;;;;;;;;;;;;34.26;nan;102175.19;4966464;28;19926;-79
2023/06/12 08:35:48;;;;;;;;;;;;;;;34.28;nan;102177.59;4967033;28;19922;-79
2023/06/12 08:38:13;;;;;;;;;;;;;;;34.31;nan;102186.03;4964675;28;20016;-80
2023/06/12 08:40:38;;;;;;;;;;;;;;;34.40;nan;102182.97;4961455;28;19941;-79
2023/06/12 08:43:04;;;;;;;;;;;;;;;34.46;nan;102173.09;4966893;28;19926;-80
2023/06/12 08:45:30;;;;;;;;;;;;;;;34.48;nan;102188.28;4967398;28;19929;-81
2023/06/12 08:47:55;;;;;;;;;;;;;;;34.50;nan;102173.97;4965023;28;19926;-80
2023/06/12 08:50:20;;;;;;;;;;;;;;;34.54;nan;102183.16;4964858;28;19918;-80
2023/06/12 08:52:46;;;;;;;;;;;;;;;34.63;nan;102177.28;4965609;28;19918;-80
2023/06/12 08:55:13;;;;;;;;;;;;;;;34.72;nan;102177.81;4964277;28;20298;-79
2023/06/12 08:57:38;;;;;;;;;;;;;;;34.70;nan;102185.75;4979790;28;20299;-80
2023/06/12 09:00:10;;;;;;;;;;;;;;;34.57;nan;102178.81;4966754;28;19926;-80
2023/06/12 09:02:35;;;;;;;;;;;;;;;34.56;nan;102180.00;4966654;28;20012;-79
2023/06/12 09:05:02;;;;;;;;;;;;;;;34.70;nan;102180.19;4966089;28;20356;-80
2023/06/12 09:07:29;;;;;;;;;;;;;;;34.82;nan;102174.34;4966741;28;20008;-80
2023/06/12 09:09:55;;;;;;;;;;;;;;;34.88;nan;102186.78;4966300;28;19929;-81
2023/06/12 09:12:21;;;;;;;;;;;;;;;34.81;nan;102186.66;4960906;28;20311;-80
2023/06/12 09:14:50;;;;;;;;;;;;;;;34.71;nan;102173.44;4965199;28;20013;-80
2023/06/12 09:17:16;;;;;;;;;;;;;;;34.62;nan;102167.34;4966229;28;19922;-80
2023/06/12 09:19:43;;;;;;;;;;;;;;;34.64;nan;102167.75;4962352;28;19965;-80
2023/06/12 09:22:08;;;;;;;;;;;;;;;34.81;nan;102167.16;4965509;28;19929;-80
2023/06/12 09:24:34;;;;;;;;;;;;;;;35.00;nan;102178.16;4961533;28;19930;-80
2023/06/12 09:27:02;;;;;;;;;;;;;;;35.02;nan;102178.59;4966554;28;19994;-81
2023/06/12 09:29:29;;;;;;;;;;;;;;;34.91;nan;102180.47;4965288;28;19947;-81
2023/06/12 09:31:54;;;;;;;;;;;;;;;34.87;nan;102173.25;4964853;28;20192;-80
2023/06/12 09:34:22;;;;;;;;;;;;;;;34.87;nan;102168.47;4966085;28;20061;-81
2023/06/12 09:36:47;;;;;;;;;;;;;;;34.92;nan;102176.50;4965955;28;20000;-81
2023/06/12 09:39:15;;;;;;;;;;;;;;;35.03;nan;102171.84;4963787;28;20016;-79
2023/06/12 09:41:47;;;;;;;;;;;;;;;35.13;nan;102175.91;4963051;28;19925;-79
2023/06/12 09:44:12;;;;;;;;;;;;;;;35.23;nan;102168.84;4968863;28;19922;-79
2023/06/12 09:46:38;;;;;;;;;;;;;;;35.32;nan;102166.53;4964128;28;19922;-79
2023/06/12 09:49:04;;;;;;;;;;;;;;;35.41;nan;102169.84;4961780;28;20295;-79
2023/06/12 09:51:30;;;;;;;;;;;;;;;35.53;nan;102166.75;4961427;28;19928;-79
2023/06/12 09:53:56;;;;;;;;;;;;;;;35.70;nan;102154.94;4965443;28;19933;-79
2023/06/12 09:56:23;;;;;;;;;;;;;;;35.80;nan;102150.63;4961579;28;20414;-79
2023/06/12 09:58:49;;;;;;;;;;;;;;;35.87;nan;102156.28;4965540;28;19997;-79
2023/06/12 10:01:17;;;;;;;;;;;;;;;35.88;nan;102151.50;4963082;28;20382;-79
2023/06/12 10:03:44;;;;;;;;;;;;;;;35.99;nan;102149.59;4964030;28;19918;-80
2023/06/12 10:06:12;;;;;;;;;;;;;;;36.05;nan;102142.44;4962607;28;19941;-81
2023/06/12 10:08:37;;;;;;;;;;;;;;;35.94;nan;102147.19;4961358;28;19973;-80
2023/06/12 10:11:03;;;;;;;;;;;;;;;35.85;nan;102147.50;4960943;28;19930;-80
2023/06/12 10:13:29;;;;;;;;;;;;;;;35.86;nan;102142.72;4963325;28;20387;-80
2023/06/12 10:15:55;;;;;;;;;;;;;;;35.69;nan;102136.63;4961762;28;19970;-80
2023/06/12 10:18:21;;;;;;;;;;;;;;;35.50;nan;102141.66;4961819;28;20018;-81
2023/06/12 10:20:49;;;;;;;;;;;;;;;35.32;nan;102142.25;4963474;28;20064;-80
2023/06/12 10:23:15;;;;;;;;;;;;;;;35.23;nan;102129.84;4965567;28;20345;-80
2023/06/12 10:25:40;;;;;;;;;;;;;;;35.20;nan;102136.19;4981645;28;19932;-80
2023/06/12 10:28:06;;;;;;;;;;;;;;;35.19;nan;102132.63;4966813;28;20302;-80
2023/06/12 10:30:31;;;;;;;;;;;;;;;35.17;nan;102136.94;4963945;28;19930;-80
2023/06/12 10:33:05;;;;;;;;;;;;;;;35.17;nan;102131.38;4960687;28;19931;-80
2023/06/12 10:35:31;;;;;;;;;;;;;;;35.37;nan;102127.19;4960154;28;20021;-80
2023/06/12 10:37:56;;;;;;;;;;;;;;;35.52;nan;102131.69;4962546;28;20541;-79
2023/06/12 10:40:22;;;;;;;;;;;;;;;35.47;nan;102128.47;4965522;28;20013;-79
2023/06/12 10:42:47;;;;;;;;;;;;;;;35.36;nan;102131.16;4962929;28;20422;-79
2023/06/12 10:45:16;;;;;;;;;;;;;;;35.26;nan;102124.31;4965883;28;20330;-79
2023/06/12 10:47:41;;;;;;;;;;;;;;;35.16;nan;102125.00;4964623;28;20004;-79
2023/06/12 10:50:08;;;;;;;;;;;;;;;35.07;nan;102119.75;4966414;28;20421;-80
2023/06/12 10:52:33;;;;;;;;;;;;;;;34.91;nan;102123.97;4960464;28;19926;-80
2023/06/12 10:55:17;;;;;;;;;;;;;;;34.82;nan;102129.78;4955576;28;19919;-79
2023/06/12 10:57:55;;;;;;;;;;;;;;;34.72;nan;102122.16;4958691;28;20025;-80
2023/06/12 11:00:27;;;;;;;;;;;;;;;34.67;nan;102114.94;4958857;28;19926;-79
2023/06/12 11:02:57;;;;;;;;;;;;;;;34.71;nan;102115.78;4960157;28;20834;-80
2023/06/12 11:05:23;;;;;;;;;;;;;;;34.75;nan;102110.25;4982024;28;20565;-80
2023/06/12 11:07:49;;;;;;;;;;;;;;;34.80;nan;102107.91;4969625;28;19925;-80
2023/06/12 11:10:14;;;;;;;;;;;;;;;34.77;nan;102102.31;4964359;28;20013;-80
2023/06/12 11:12:47;;;;;;;;;;;;;;;34.95;nan;102102.50;4963914;28;19926;-80
2023/06/12 11:15:12;;;;;;;;;;;;;;;35.14;nan;102100.31;4963375;28;19918;-80
2023/06/12 11:17:37;;;;;;;;;;;;;;;35.13;nan;102095.94;4959572;28;19926;-80
2023/06/12 11:20:05;;;;;;;;;;;;;;;35.09;nan;102097.09;4960666;28;20342;-80
2023/06/12 11:22:31;;;;;;;;;;;;;;;35.16;nan;102086.00;4960654;28;19918;-80
2023/06/12 11:25:00;;;;;;;;;;;;;;;35.41;nan;102075.91;4959515;28;19926;-80
2023/06/12 11:27:25;;;;;;;;;;;;;;;35.51;nan;102082.72;4960823;28;19930;-80
2023/06/12 11:29:50;;;;;;;;;;;;;;;35.48;nan;102085.50;4963513;28;19933;-80
2023/06/12 11:32:16;;;;;;;;;;;;;;;35.45;nan;102080.69;4957900;28;20600;-80
2023/06/12 11:34:41;;;;;;;;;;;;;;;35.56;nan;102081.59;4965959;28;20410;-80
2023/06/12 11:37:13;;;;;;;;;;;;;;;35.77;nan;102076.13;4960694;28;19925;-80
2023/06/12 11:39:39;;;;;;;;;;;;;;;35.94;nan;102071.88;4965700;28;19922;-80
2023/06/12 11:42:05;;;;;;;;;;;;;;;36.08;nan;102063.56;4965382;28;20004;-80
2023/06/12 11:44:31;;;;;;;;;;;;;;;36.21;nan;102070.41;4963283;28;20045;-80
2023/06/12 11:47:03;;;;;;;;;;;;;;;36.37;nan;102072.06;4962859;28;20492;-80
2023/06/12 11:49:31;;;;;;;;;;;;;;;36.44;nan;102069.28;4964156;28;19967;-80
2023/06/12 11:51:57;;;;;;;;;;;;;;;36.56;nan;102066.16;4963364;28;19926;-80
2023/06/12 11:54:22;;;;;;;;;;;;;;;36.67;nan;102061.41;4964108;28;19938;-80
2023/06/12 11:56:48;;;;;;;;;;;;;;;36.87;nan;102054.28;4961244;28;20208;-80
2023/06/12 11:59:13;;;;;;;;;;;;;;;37.04;nan;102060.25;4962821;28;19918;-80
2023/06/12 12:01:45;;;;;;;;;;;;;;;37.07;nan;102065.84;4967150;28;19919;-80
2023/06/12 12:04:11;;;;;;;;;;;;;;;37.09;nan;102059.84;4964490;28;19922;-81
2023/06/12 12:07:06;;;;;;;;;;;;;;;37.08;nan;102056.28;4966757;28;19968;-80
2023/06/12 12:09:32;;;;;;;;;;;;;;;37.00;nan;102051.09;4959981;28;19921;-81
2023/06/12 12:12:06;;;;;;;;;;;;;;;36.86;nan;102055.47;4961282;28;19922;-80
2023/06/12 12:14:32;;;;;;;;;;;;;;;36.69;nan;102049.81;4960626;28;19993;-80
2023/06/12 12:17:02;;;;;;;;;;;;;;;36.58;nan;102050.59;4959838;28;20367;-80
2023/06/12 12:19:29;;;;;;;;;;;;;;;36.56;nan;102049.41;4965033;28;19922;-81
2023/06/12 12:21:55;;;;;;;;;;;;;;;36.52;nan;102048.59;4963808;28;19922;-81
2023/06/12 12:24:20;;;;;;;;;;;;;;;36.49;nan;102049.41;4955643;28;19988;-81
2023/06/12 12:26:48;;;;;;;;;;;;;;;36.40;nan;102046.16;4958379;28;19933;-81
2023/06/12 12:29:14;;;;;;;;;;;;;;;36.29;nan;102041.34;4960856;28;19929;-80
2023/06/12 12:31:39;;;;;;;;;;;;;;;36.22;nan;102040.50;4962801;28;20667;-81
2023/06/12 12:34:04;;;;;;;;;;;;;;;36.24;nan;102030.53;4956762;28;19969;-81
2023/06/12 12:36:30;;;;;;;;;;;;;;;36.46;nan;102030.66;4960905;28;19922;-81
2023/06/12 12:38:55;;;;;;;;;;;;;;;36.72;nan;102023.91;4962123;28;19923;-80
2023/06/12 12:41:20;;;;;;;;;;;;;;;36.75;nan;102035.06;4955774;28;19926;-80
2023/06/12 12:43:46;;;;;;;;;;;;;;;36.82;nan;102029.53;4958251;28;20464;-80
2023/06/12 12:46:11;;;;;;;;;;;;;;;36.90;nan;102025.53;4959173;28;19949;-80
2023/06/12 12:48:38;;;;;;;;;;;;;;;36.95;nan;102024.34;4958647;28;19930;-80
2023/06/12 12:51:03;;;;;;;;;;;;;;;37.06;nan;102013.16;4959339;28;19930;-80
2023/06/12 12:53:28;;;;;;;;;;;;;;;37.21;nan;102009.16;4959828;28;19980;-80
2023/06/12 12:55:53;;;;;;;;;;;;;;;37.31;nan;102005.56;4953271;28;20416;-80